Time;durP1;ratioP1;P1;durP2;ratioP2;P2;SDS_P1;SDS_P2;PMS_P1;PMS_P2;Temp;Humidity;BMP_temperature;BMP_pressure;BME280_temperature;BME280_humidity;BME280_pressure;Samples;Min_cycle;Max_cycle;Signal;HPM_P1;HPM_P2
2023/01/27 00:01:34;;;;;;;;;;;7.90;99.90;;;;;;5114863;28;19908;-71
2023/01/27 00:04:00;;;;;;;;;;;7.90;99.90;;;;;;5095648;28;19926;-70
2023/01/27 00:06:26;;;;;;;;;;;7.80;99.90;;;;;;5114051;28;20111;-70
2023/01/27 00:08:52;;;;;;;;;;;7.80;99.90;;;;;;5095852;28;19911;-71
2023/01/27 00:14:03;;;;;;;;;;;7.70;99.90;;;;;;5088507;28;19934;-71
2023/01/27 00:16:28;;;;;;;;;;;7.80;99.90;;;;;;5094057;28;19940;-71
2023/01/27 00:18:54;;;;;;;;;;;7.80;99.90;;;;;;5071183;28;19950;-71
2023/01/27 00:26:48;;;;;;;;;;;7.70;99.90;;;;;;5073272;28;19954;-71
2023/01/27 00:29:14;;;;;;;;;;;7.70;99.90;;;;;;5073139;28;19909;-70
2023/01/27 00:34:24;;;;;;;;;;;7.60;99.90;;;;;;5073345;28;19927;-69
2023/01/27 00:36:50;;;;;;;;;;;7.60;99.90;;;;;;5072655;28;19999;-70
2023/01/27 00:39:16;;;;;;;;;;;7.70;99.90;;;;;;5073250;28;19912;-71
2023/01/27 00:41:41;;;;;;;;;;;7.70;99.90;;;;;;5073091;28;19999;-68
2023/01/27 00:44:12;;;;;;;;;;;7.70;99.90;;;;;;5061875;28;20376;-70
2023/01/27 00:46:38;;;;;;;;;;;7.70;99.90;;;;;;5113543;28;20367;-70
2023/01/27 00:49:03;;;;;;;;;;;7.60;99.90;;;;;;5094961;28;19915;-70
2023/01/27 00:51:29;;;;;;;;;;;7.60;99.90;;;;;;5113197;28;19951;-73
2023/01/27 00:53:55;;;;;;;;;;;7.70;99.90;;;;;;5113347;28;19918;-71
2023/01/27 00:56:21;;;;;;;;;;;7.60;99.90;;;;;;5112802;28;19908;-70
2023/01/27 00:58:47;;;;;;;;;;;7.60;99.90;;;;;;5113577;28;19908;-71
2023/01/27 01:01:14;;;;;;;;;;;7.70;99.90;;;;;;5113444;28;20355;-69
2023/01/27 01:03:40;;;;;;;;;;;7.70;99.90;;;;;;5112978;28;20349;-71
2023/01/27 01:06:08;;;;;;;;;;;7.60;99.90;;;;;;5113516;28;20380;-70
2023/01/27 01:08:34;;;;;;;;;;;7.60;99.90;;;;;;5113488;28;20282;-70
2023/01/27 01:11:00;;;;;;;;;;;7.60;99.90;;;;;;5113305;28;19908;-70
2023/01/27 01:13:27;;;;;;;;;;;7.50;99.90;;;;;;5113258;28;19908;-70
2023/01/27 01:15:53;;;;;;;;;;;7.60;99.90;;;;;;5112826;28;19915;-70
2023/01/27 01:18:19;;;;;;;;;;;7.70;99.90;;;;;;5094654;28;20240;-71
2023/01/27 01:20:46;;;;;;;;;;;7.60;99.90;;;;;;5113104;28;19915;-71
2023/01/27 01:23:12;;;;;;;;;;;7.60;99.90;;;;;;5113037;28;20018;-70
2023/01/27 01:25:38;;;;;;;;;;;7.70;99.90;;;;;;5094330;28;19922;-71
2023/01/27 01:28:04;;;;;;;;;;;7.60;99.90;;;;;;5112976;28;19916;-70
2023/01/27 01:30:30;;;;;;;;;;;7.60;99.90;;;;;;5113762;28;19949;-69
2023/01/27 01:32:56;;;;;;;;;;;7.60;99.90;;;;;;5113119;28;19908;-71
2023/01/27 01:35:26;;;;;;;;;;;7.50;99.90;;;;;;5094165;28;19953;-70
2023/01/27 01:37:53;;;;;;;;;;;7.40;99.90;;;;;;5112975;28;19949;-70
2023/01/27 01:40:20;;;;;;;;;;;7.40;99.90;;;;;;5112899;28;19914;-71
2023/01/27 01:42:51;;;;;;;;;;;7.30;99.90;;;;;;5112714;28;19911;-71
2023/01/27 01:45:32;;;;;;;;;;;7.30;99.90;;;;;;5112469;28;20294;-70
2023/01/27 01:48:09;;;;;;;;;;;7.20;99.90;;;;;;5112620;28;19947;-67
2023/01/27 01:50:36;;;;;;;;;;;7.20;99.90;;;;;;5111709;28;19912;-70
2023/01/27 01:53:03;;;;;;;;;;;7.10;99.90;;;;;;5112664;28;19923;-70
2023/01/27 01:55:29;;;;;;;;;;;7.10;99.90;;;;;;5112774;28;19964;-70
2023/01/27 01:57:55;;;;;;;;;;;7.00;99.90;;;;;;5112537;28;19908;-71
2023/01/27 02:00:21;;;;;;;;;;;7.00;99.90;;;;;;5112726;28;19926;-71
2023/01/27 02:02:48;;;;;;;;;;;7.00;99.90;;;;;;5112527;28;20319;-70
2023/01/27 02:05:20;;;;;;;;;;;7.00;99.90;;;;;;5112376;28;19951;-70
2023/01/27 02:07:49;;;;;;;;;;;7.10;99.90;;;;;;5112335;28;20102;-71
2023/01/27 02:10:15;;;;;;;;;;;7.10;99.90;;;;;;5112302;28;19908;-70
2023/01/27 02:12:40;;;;;;;;;;;7.10;99.90;;;;;;5112441;28;19915;-70
2023/01/27 02:15:07;;;;;;;;;;;7.10;99.90;;;;;;5112298;28;19908;-70
2023/01/27 02:17:34;;;;;;;;;;;7.10;99.90;;;;;;5112223;28;20275;-70
2023/01/27 02:20:02;;;;;;;;;;;7.10;99.90;;;;;;5112341;28;20007;-70
2023/01/27 02:22:48;;;;;;;;;;;7.10;99.90;;;;;;5112062;28;19944;-71
2023/01/27 02:25:40;;;;;;;;;;;7.10;99.90;;;;;;5070394;28;19915;-71
2023/01/27 02:28:07;;;;;;;;;;;7.20;99.90;;;;;;5108273;28;19915;-70
2023/01/27 02:30:33;;;;;;;;;;;7.20;99.90;;;;;;5112525;28;19912;-71
2023/01/27 02:32:59;;;;;;;;;;;7.10;99.90;;;;;;5093703;28;20272;-70
2023/01/27 02:35:28;;;;;;;;;;;7.20;99.90;;;;;;5093575;28;19907;-70
2023/01/27 02:37:55;;;;;;;;;;;7.20;99.90;;;;;;5093508;28;19949;-70
2023/01/27 02:40:21;;;;;;;;;;;7.20;99.90;;;;;;5112082;28;19907;-70
2023/01/27 02:42:47;;;;;;;;;;;7.20;99.90;;;;;;5111944;28;20389;-70
2023/01/27 02:45:13;;;;;;;;;;;7.20;99.90;;;;;;5112068;28;19919;-71
2023/01/27 02:47:39;;;;;;;;;;;7.20;99.90;;;;;;5112122;28;19915;-71
2023/01/27 02:50:05;;;;;;;;;;;7.20;99.90;;;;;;5111983;28;19908;-70
2023/01/27 02:52:32;;;;;;;;;;;7.10;99.90;;;;;;5093412;28;19908;-70
2023/01/27 02:54:58;;;;;;;;;;;7.10;99.90;;;;;;5112254;28;19908;-71
2023/01/27 02:57:30;;;;;;;;;;;7.10;99.90;;;;;;5111957;28;19915;-70
2023/01/27 02:59:58;;;;;;;;;;;7.20;99.90;;;;;;5111793;28;19945;-70
2023/01/27 03:02:29;;;;;;;;;;;7.40;99.90;;;;;;5112490;28;19908;-70
2023/01/27 03:04:59;;;;;;;;;;;7.40;99.90;;;;;;5115667;28;19926;-71
2023/01/27 03:07:24;;;;;;;;;;;7.30;99.90;;;;;;5115606;28;20342;-71
2023/01/27 03:09:50;;;;;;;;;;;7.20;99.90;;;;;;5097205;28;19908;-70
2023/01/27 03:12:19;;;;;;;;;;;7.20;99.90;;;;;;5097388;28;20311;-71
2023/01/27 03:20:13;;;;;;;;;;;7.00;99.90;;;;;;5116017;28;20014;-71
2023/01/27 03:22:39;;;;;;;;;;;7.20;99.90;;;;;;5115349;28;19908;-69
2023/01/27 03:25:05;;;;;;;;;;;7.30;99.90;;;;;;5115539;28;19943;-71
2023/01/27 03:27:31;;;;;;;;;;;7.40;99.90;;;;;;5115471;28;19963;-71
2023/01/27 03:29:57;;;;;;;;;;;7.20;99.90;;;;;;5115395;28;19908;-70
2023/01/27 03:32:23;;;;;;;;;;;7.00;99.90;;;;;;5115618;28;19908;-70
2023/01/27 03:34:50;;;;;;;;;;;6.90;99.90;;;;;;5115214;28;20390;-70
2023/01/27 03:48:13;;;;;;;;;;;6.50;99.90;;;;;;5115320;28;19977;-70
2023/01/27 03:50:42;;;;;;;;;;;6.50;99.90;;;;;;5115356;28;19916;-69
2023/01/27 03:53:08;;;;;;;;;;;6.50;99.90;;;;;;5114276;28;19907;-71
2023/01/27 03:55:35;;;;;;;;;;;6.50;99.90;;;;;;5114315;28;19907;-70
2023/01/27 03:58:18;;;;;;;;;;;6.40;99.90;;;;;;5114625;28;19959;-71
2023/01/27 04:00:46;;;;;;;;;;;6.40;99.90;;;;;;5115120;28;19908;-71
2023/01/27 04:08:43;;;;;;;;;;;6.40;99.90;;;;;;5115779;28;20021;-71
2023/01/27 04:13:53;;;;;;;;;;;6.60;99.90;;;;;;5099213;28;19968;-70
2023/01/27 04:16:19;;;;;;;;;;;6.60;99.90;;;;;;5115153;28;20314;-71
2023/01/27 04:18:45;;;;;;;;;;;6.70;99.90;;;;;;5114881;28;19918;-70
2023/01/27 04:21:12;;;;;;;;;;;6.80;99.90;;;;;;5114900;28;19998;-70
2023/01/27 04:23:38;;;;;;;;;;;6.80;99.90;;;;;;5114982;28;19908;-70
2023/01/27 04:26:04;;;;;;;;;;;6.80;99.90;;;;;;5115018;28;19931;-70
2023/01/27 04:28:29;;;;;;;;;;;6.80;99.90;;;;;;5115336;28;19918;-71
2023/01/27 04:30:57;;;;;;;;;;;6.90;99.90;;;;;;5115510;28;19908;-70
2023/01/27 04:33:23;;;;;;;;;;;6.90;99.90;;;;;;5115240;28;19908;-70
2023/01/27 04:35:50;;;;;;;;;;;7.00;99.90;;;;;;5115010;28;19908;-70
2023/01/27 04:38:15;;;;;;;;;;;7.00;99.90;;;;;;5096394;28;19915;-70
2023/01/27 04:40:43;;;;;;;;;;;7.00;99.90;;;;;;5115209;28;19908;-67
2023/01/27 04:43:09;;;;;;;;;;;7.10;99.90;;;;;;5114919;28;20003;-70
2023/01/27 04:45:34;;;;;;;;;;;7.00;99.90;;;;;;5114616;28;19923;-70
2023/01/27 04:48:00;;;;;;;;;;;7.00;99.90;;;;;;5114803;28;19918;-70
2023/01/27 04:50:26;;;;;;;;;;;7.00;99.90;;;;;;5096925;28;20240;-70
2023/01/27 04:52:52;;;;;;;;;;;7.00;99.90;;;;;;5114499;28;19953;-68
2023/01/27 04:55:18;;;;;;;;;;;7.00;99.90;;;;;;5115268;28;19908;-70
2023/01/27 04:57:43;;;;;;;;;;;7.00;99.90;;;;;;5114793;28;19934;-69
2023/01/27 05:00:10;;;;;;;;;;;7.00;99.90;;;;;;5114708;28;20368;-70
2023/01/27 05:02:37;;;;;;;;;;;7.00;99.90;;;;;;5114538;28;19955;-71
2023/01/27 05:05:03;;;;;;;;;;;6.90;99.90;;;;;;5114182;28;19926;-70
2023/01/27 05:07:29;;;;;;;;;;;6.80;99.90;;;;;;5114218;28;20399;-71
2023/01/27 05:09:55;;;;;;;;;;;6.90;99.90;;;;;;5095891;28;20374;-71
2023/01/27 05:12:21;;;;;;;;;;;6.80;99.90;;;;;;5087723;28;19912;-66
2023/01/27 05:14:48;;;;;;;;;;;6.90;99.90;;;;;;5075868;28;19956;-67
2023/01/27 05:17:14;;;;;;;;;;;6.90;99.90;;;;;;5094227;28;19912;-67
2023/01/27 05:19:39;;;;;;;;;;;6.90;99.90;;;;;;5094573;28;19908;-71
2023/01/27 05:22:05;;;;;;;;;;;6.90;99.90;;;;;;5094931;28;19916;-67
2023/01/27 05:24:31;;;;;;;;;;;6.90;99.90;;;;;;5094839;28;19915;-70
2023/01/27 05:26:57;;;;;;;;;;;6.90;99.90;;;;;;5093909;28;19954;-70
2023/01/27 05:29:23;;;;;;;;;;;6.80;99.90;;;;;;5076193;28;19970;-69
2023/01/27 05:31:49;;;;;;;;;;;6.80;99.90;;;;;;5094357;28;19909;-71
2023/01/27 05:34:15;;;;;;;;;;;6.80;99.90;;;;;;5094527;28;20264;-71
2023/01/27 05:36:42;;;;;;;;;;;6.90;99.90;;;;;;5094138;28;19908;-69
2023/01/27 05:39:09;;;;;;;;;;;7.00;99.90;;;;;;5075960;28;19909;-71
2023/01/27 05:41:35;;;;;;;;;;;6.90;99.90;;;;;;5094734;28;19916;-71
2023/01/27 05:44:01;;;;;;;;;;;6.80;99.90;;;;;;5096803;28;19908;-71
2023/01/27 05:46:28;;;;;;;;;;;6.80;99.90;;;;;;5114388;28;19908;-72
2023/01/27 05:48:56;;;;;;;;;;;6.70;99.90;;;;;;5114940;28;19908;-70
2023/01/27 05:51:23;;;;;;;;;;;6.80;99.90;;;;;;5095728;28;19908;-72
2023/01/27 05:53:48;;;;;;;;;;;6.90;99.90;;;;;;5114309;28;19908;-72
2023/01/27 05:56:15;;;;;;;;;;;6.90;99.90;;;;;;5114624;28;19950;-73
2023/01/27 05:58:42;;;;;;;;;;;6.90;99.90;;;;;;5114238;28;19908;-71
2023/01/27 06:01:27;;;;;;;;;;;6.90;99.90;;;;;;5114599;28;19912;-71
2023/01/27 06:03:53;;;;;;;;;;;6.90;99.90;;;;;;5114258;28;19919;-72
2023/01/27 06:06:20;;;;;;;;;;;6.90;99.90;;;;;;5093811;28;20321;-70
2023/01/27 06:08:46;;;;;;;;;;;6.90;99.90;;;;;;5091150;28;19912;-72
2023/01/27 06:11:12;;;;;;;;;;;7.00;99.90;;;;;;5091522;28;20348;-74
2023/01/27 06:13:39;;;;;;;;;;;7.00;99.90;;;;;;5084479;28;19915;-68
2023/01/27 06:16:06;;;;;;;;;;;7.00;99.90;;;;;;5095033;28;20362;-72
2023/01/27 06:18:32;;;;;;;;;;;7.00;99.90;;;;;;5114598;28;19921;-72
2023/01/27 06:21:01;;;;;;;;;;;6.90;99.90;;;;;;5114017;28;19914;-72
2023/01/27 06:23:28;;;;;;;;;;;6.90;99.90;;;;;;5099440;28;19914;-69
2023/01/27 06:25:54;;;;;;;;;;;6.90;99.90;;;;;;5073601;28;19916;-71
2023/01/27 06:28:20;;;;;;;;;;;6.80;99.90;;;;;;5073191;28;19992;-71
2023/01/27 06:30:46;;;;;;;;;;;6.80;99.90;;;;;;5072618;28;20320;-70
2023/01/27 06:33:12;;;;;;;;;;;6.80;99.90;;;;;;5072543;28;20280;-71
2023/01/27 06:35:39;;;;;;;;;;;7.10;99.90;;;;;;5072535;28;19909;-71
2023/01/27 06:38:05;;;;;;;;;;;7.60;99.90;;;;;;5075591;28;19909;-71
2023/01/27 06:40:33;;;;;;;;;;;8.20;99.90;;;;;;5077002;28;20220;-71
2023/01/27 06:42:59;;;;;;;;;;;8.70;99.90;;;;;;5076491;28;19908;-72
2023/01/27 06:45:25;;;;;;;;;;;9.20;99.90;;;;;;5086808;28;19916;-72
2023/01/27 06:47:55;;;;;;;;;;;9.60;99.90;;;;;;5116938;28;19916;-72
2023/01/27 06:50:21;;;;;;;;;;;10.10;99.90;;;;;;5116664;28;19934;-71
2023/01/27 06:52:46;;;;;;;;;;;10.50;99.90;;;;;;5116496;28;20359;-73
2023/01/27 06:55:12;;;;;;;;;;;10.80;99.90;;;;;;5115873;28;20012;-72
2023/01/27 06:57:38;;;;;;;;;;;11.20;99.90;;;;;;5097300;28;19907;-72
2023/01/27 07:00:04;;;;;;;;;;;11.80;99.90;;;;;;5116330;28;19915;-73
2023/01/27 07:02:30;;;;;;;;;;;12.30;99.90;;;;;;5116110;28;19999;-74
2023/01/27 07:04:56;;;;;;;;;;;13.10;99.90;;;;;;5115829;28;20366;-72
2023/01/27 07:07:22;;;;;;;;;;;13.70;99.90;;;;;;5115945;28;19907;-72
2023/01/27 07:09:47;;;;;;;;;;;13.70;99.90;;;;;;5116471;28;19914;-73
2023/01/27 07:12:13;;;;;;;;;;;13.90;99.90;;;;;;5116137;28;20002;-73
2023/01/27 07:14:39;;;;;;;;;;;14.70;99.90;;;;;;5116127;28;19923;-73
2023/01/27 07:17:06;;;;;;;;;;;14.30;99.90;;;;;;5116512;28;20415;-72
2023/01/27 07:19:32;;;;;;;;;;;14.20;99.90;;;;;;5116584;28;20359;-72
2023/01/27 07:21:58;;;;;;;;;;;14.10;99.90;;;;;;5116335;28;19914;-74
2023/01/27 07:24:23;;;;;;;;;;;14.10;99.90;;;;;;5116428;28;19922;-69
2023/01/27 07:26:49;;;;;;;;;;;13.50;99.90;;;;;;5116338;28;20263;-72
2023/01/27 07:29:15;;;;;;;;;;;13.70;99.90;;;;;;5116472;28;19908;-73
2023/01/27 07:31:41;;;;;;;;;;;14.70;99.90;;;;;;5116201;28;19911;-71
2023/01/27 07:34:07;;;;;;;;;;;13.30;99.90;;;;;;5116266;28;19963;-72
2023/01/27 07:36:32;;;;;;;;;;;13.40;99.90;;;;;;5115980;28;20002;-72
2023/01/27 07:38:58;;;;;;;;;;;13.90;99.90;;;;;;5116245;28;19977;-72
2023/01/27 07:41:25;;;;;;;;;;;14.50;99.90;;;;;;5115777;28;19908;-73
2023/01/27 07:43:51;;;;;;;;;;;15.80;99.90;;;;;;5115856;28;19918;-72
2023/01/27 07:46:16;;;;;;;;;;;16.20;99.90;;;;;;5115676;28;19915;-73
2023/01/27 07:48:42;;;;;;;;;;;16.80;99.90;;;;;;5114816;28;19908;-70
2023/01/27 07:51:12;;;;;;;;;;;17.00;99.90;;;;;;5116532;28;20280;-72
2023/01/27 07:53:38;;;;;;;;;;;16.40;99.90;;;;;;5096949;28;19907;-74
2023/01/27 07:56:04;;;;;;;;;;;16.10;99.90;;;;;;5116601;28;19908;-73
2023/01/27 07:58:30;;;;;;;;;;;16.00;99.90;;;;;;5116298;28;20006;-73
2023/01/27 08:00:56;;;;;;;;;;;15.90;99.90;;;;;;5115465;28;19908;-72
2023/01/27 08:03:23;;;;;;;;;;;15.50;99.90;;;;;;5115585;28;20362;-73
2023/01/27 08:05:49;;;;;;;;;;;15.10;99.90;;;;;;5116036;28;19926;-71
2023/01/27 08:08:15;;;;;;;;;;;14.60;99.90;;;;;;5114325;28;19915;-72
2023/01/27 08:10:45;;;;;;;;;;;14.40;99.90;;;;;;5112406;28;19911;-69
2023/01/27 08:13:12;;;;;;;;;;;14.10;99.90;;;;;;5113196;28;19986;-73
2023/01/27 08:15:38;;;;;;;;;;;13.80;99.90;;;;;;5096440;28;20002;-72
2023/01/27 08:18:04;;;;;;;;;;;13.30;99.90;;;;;;5114730;28;20002;-70
2023/01/27 08:20:31;;;;;;;;;;;13.10;99.90;;;;;;5114489;28;19918;-73
2023/01/27 08:22:57;;;;;;;;;;;12.70;99.90;;;;;;5114500;28;19908;-72
2023/01/27 08:25:24;;;;;;;;;;;12.50;99.90;;;;;;5114880;28;19962;-72
2023/01/27 08:27:51;;;;;;;;;;;12.50;99.90;;;;;;5115351;28;20268;-72
2023/01/27 08:30:17;;;;;;;;;;;12.50;99.90;;;;;;5115098;28;19915;-71
2023/01/27 08:32:43;;;;;;;;;;;12.50;99.90;;;;;;5096536;28;20355;-70
2023/01/27 08:35:08;;;;;;;;;;;12.60;99.90;;;;;;5096428;28;19955;-72
2023/01/27 08:37:34;;;;;;;;;;;12.60;99.90;;;;;;5114897;28;19919;-71
2023/01/27 08:40:00;;;;;;;;;;;12.40;99.90;;;;;;5114703;28;19907;-71
2023/01/27 08:42:26;;;;;;;;;;;12.30;99.90;;;;;;5115043;28;19915;-73
2023/01/27 08:44:52;;;;;;;;;;;12.40;99.90;;;;;;5096065;28;19923;-71
2023/01/27 08:47:18;;;;;;;;;;;12.20;99.90;;;;;;5115286;28;19924;-72
2023/01/27 08:49:44;;;;;;;;;;;12.30;99.90;;;;;;5114638;28;19962;-71
2023/01/27 08:52:10;;;;;;;;;;;12.40;99.90;;;;;;5114461;28;20041;-73
2023/01/27 08:54:37;;;;;;;;;;;12.90;99.90;;;;;;5114526;28;20323;-71
2023/01/27 08:57:03;;;;;;;;;;;13.20;99.90;;;;;;5114098;28;19911;-70
2023/01/27 08:59:29;;;;;;;;;;;13.60;99.90;;;;;;5114092;28;19908;-72
2023/01/27 09:01:54;;;;;;;;;;;13.50;99.90;;;;;;5113784;28;19908;-71
2023/01/27 09:04:21;;;;;;;;;;;13.40;99.90;;;;;;5091702;28;19924;-72
2023/01/27 09:06:48;;;;;;;;;;;13.20;99.90;;;;;;5093146;28;20263;-72
2023/01/27 09:09:14;;;;;;;;;;;13.00;99.90;;;;;;5093658;28;19908;-73
2023/01/27 09:11:41;;;;;;;;;;;13.20;99.90;;;;;;5093411;28;19931;-73
2023/01/27 09:14:07;;;;;;;;;;;13.40;99.90;;;;;;5091932;28;19908;-72
2023/01/27 09:16:33;;;;;;;;;;;13.20;99.90;;;;;;5092291;28;19919;-73
2023/01/27 09:18:59;;;;;;;;;;;13.00;99.90;;;;;;5092596;28;19908;-72
2023/01/27 09:21:25;;;;;;;;;;;12.70;99.90;;;;;;5093670;28;20383;-72
2023/01/27 09:23:51;;;;;;;;;;;12.90;99.90;;;;;;5093396;28;19912;-70
2023/01/27 09:26:17;;;;;;;;;;;12.90;99.90;;;;;;5093978;28;19923;-72
2023/01/27 09:28:43;;;;;;;;;;;12.90;99.90;;;;;;5093767;28;19908;-72
2023/01/27 09:31:09;;;;;;;;;;;13.30;99.90;;;;;;5093331;28;20003;-71
2023/01/27 09:33:35;;;;;;;;;;;13.20;99.90;;;;;;5091726;28;19942;-72
2023/01/27 09:36:05;;;;;;;;;;;13.10;99.90;;;;;;5093144;28;19935;-72
2023/01/27 09:38:33;;;;;;;;;;;13.00;99.90;;;;;;5092903;28;19938;-72
2023/01/27 09:41:11;;;;;;;;;;;13.00;99.90;;;;;;5093366;28;19947;-70
2023/01/27 09:43:37;;;;;;;;;;;12.80;99.90;;;;;;5093201;28;19947;-72
2023/01/27 09:46:07;;;;;;;;;;;13.20;99.90;;;;;;5092550;28;19916;-72
2023/01/27 09:49:03;;;;;;;;;;;13.40;99.90;;;;;;5092440;28;20055;-72
2023/01/27 09:51:46;;;;;;;;;;;13.90;99.90;;;;;;5073096;28;19908;-72
2023/01/27 09:54:21;;;;;;;;;;;14.30;99.90;;;;;;5091311;28;19912;-72
2023/01/27 09:57:26;;;;;;;;;;;14.10;99.90;;;;;;5092217;28;19999;-71
2023/01/27 10:00:02;;;;;;;;;;;13.40;99.90;;;;;;5052788;28;19955;-70
2023/01/27 10:02:46;;;;;;;;;;;13.40;99.90;;;;;;5069989;28;20378;-72
2023/01/27 10:05:21;;;;;;;;;;;13.70;99.90;;;;;;5057477;28;19947;-72
2023/01/27 10:07:52;;;;;;;;;;;14.10;99.90;;;;;;5038630;28;19932;-70
2023/01/27 10:10:30;;;;;;;;;;;14.30;99.90;;;;;;5030100;28;20029;-78
2023/01/27 10:13:22;;;;;;;;;;;14.60;99.90;;;;;;5012969;28;19971;-76
2023/01/27 10:15:55;;;;;;;;;;;14.80;99.90;;;;;;5021393;28;19920;-73
2023/01/27 10:18:56;;;;;;;;;;;15.10;99.90;;;;;;5046431;28;19916;-83
2023/01/27 10:21:24;;;;;;;;;;;15.10;99.90;;;;;;5030635;28;19913;-77
2023/01/27 10:24:02;;;;;;;;;;;14.80;99.90;;;;;;5045806;28;19909;-76
2023/01/27 10:26:34;;;;;;;;;;;15.00;99.90;;;;;;5050323;28;19923;-79
2023/01/27 10:29:15;;;;;;;;;;;15.10;99.90;;;;;;5035762;28;19917;-76
2023/01/27 10:31:53;;;;;;;;;;;15.40;99.90;;;;;;5050656;28;19956;-73
2023/01/27 10:34:19;;;;;;;;;;;15.30;99.90;;;;;;5051790;28;19916;-75
2023/01/27 10:36:50;;;;;;;;;;;15.40;99.90;;;;;;5051863;28;19939;-75
2023/01/27 10:39:31;;;;;;;;;;;15.30;99.90;;;;;;5051699;28;19909;-75
2023/01/27 10:42:03;;;;;;;;;;;14.50;99.90;;;;;;5051707;28;19909;-77
2023/01/27 10:44:50;;;;;;;;;;;14.50;99.90;;;;;;5064314;28;19934;-74
2023/01/27 10:47:33;;;;;;;;;;;14.90;99.90;;;;;;5092083;28;19908;-76
2023/01/27 10:50:02;;;;;;;;;;;14.90;99.90;;;;;;5091896;28;19908;-76
2023/01/27 10:52:39;;;;;;;;;;;15.00;99.90;;;;;;5091561;28;20006;-76
2023/01/27 10:55:07;;;;;;;;;;;14.90;99.90;;;;;;5092862;28;19938;-78
2023/01/27 10:57:57;;;;;;;;;;;15.40;99.90;;;;;;5092894;28;20383;-75
2023/01/27 11:00:29;;;;;;;;;;;15.60;99.90;;;;;;5089890;28;20274;-73
2023/01/27 11:03:03;;;;;;;;;;;15.60;99.90;;;;;;5093170;28;19914;-76
2023/01/27 11:05:32;;;;;;;;;;;15.50;99.90;;;;;;5110284;28;19920;-76
2023/01/27 11:08:02;;;;;;;;;;;14.60;99.90;;;;;;5111928;28;19912;-76
2023/01/27 11:10:35;;;;;;;;;;;14.30;99.90;;;;;;5112023;28;19953;-76
2023/01/27 11:13:02;;;;;;;;;;;14.30;99.90;;;;;;5112095;28;19918;-76
2023/01/27 11:15:30;;;;;;;;;;;14.10;99.90;;;;;;5111754;28;19908;-76
2023/01/27 11:18:02;;;;;;;;;;;14.10;99.90;;;;;;5112518;28;19931;-76
2023/01/27 11:20:30;;;;;;;;;;;13.80;99.90;;;;;;5094002;28;19957;-77
2023/01/27 11:23:08;;;;;;;;;;;13.50;99.90;;;;;;5112345;28;19907;-75
2023/01/27 11:25:47;;;;;;;;;;;13.60;99.90;;;;;;5115838;28;19939;-70
2023/01/27 11:28:23;;;;;;;;;;;13.60;99.90;;;;;;5097335;28;20033;-75
2023/01/27 11:30:53;;;;;;;;;;;13.40;99.90;;;;;;5116248;28;19912;-75
2023/01/27 11:33:27;;;;;;;;;;;13.50;99.90;;;;;;5096946;28;19908;-74
2023/01/27 11:35:54;;;;;;;;;;;13.80;99.90;;;;;;5115646;28;19921;-74
2023/01/27 11:38:21;;;;;;;;;;;14.30;99.90;;;;;;5115310;28;20004;-75
2023/01/27 11:40:50;;;;;;;;;;;14.70;99.90;;;;;;5115689;28;19927;-75
2023/01/27 11:43:18;;;;;;;;;;;14.80;99.90;;;;;;5115508;28;20347;-74
2023/01/27 11:45:46;;;;;;;;;;;15.00;99.90;;;;;;5090283;28;20356;-74
2023/01/27 11:48:14;;;;;;;;;;;15.30;99.90;;;;;;5090252;28;19919;-75
2023/01/27 11:50:42;;;;;;;;;;;14.50;99.90;;;;;;5093324;28;19912;-74
2023/01/27 11:53:18;;;;;;;;;;;14.30;99.90;;;;;;5093893;28;19912;-75
2023/01/27 11:56:02;;;;;;;;;;;14.20;99.90;;;;;;5095166;28;19941;-75
2023/01/27 11:58:33;;;;;;;;;;;14.40;99.90;;;;;;5095179;28;20272;-74
2023/01/27 12:01:00;;;;;;;;;;;15.00;99.90;;;;;;5095094;28;20007;-75
2023/01/27 12:03:42;;;;;;;;;;;15.60;99.90;;;;;;5094275;28;19931;-74
2023/01/27 12:06:28;;;;;;;;;;;16.10;99.90;;;;;;5094357;28;19947;-75
2023/01/27 12:08:54;;;;;;;;;;;16.40;99.90;;;;;;5083966;28;19908;-76
2023/01/27 12:11:30;;;;;;;;;;;17.00;99.90;;;;;;5095487;28;19914;-75
2023/01/27 12:13:57;;;;;;;;;;;17.20;99.90;;;;;;5096862;28;19909;-75
2023/01/27 12:16:34;;;;;;;;;;;17.00;99.90;;;;;;5115321;28;20412;-74
2023/01/27 12:19:04;;;;;;;;;;;16.90;99.90;;;;;;5115229;28;20350;-74
2023/01/27 12:21:34;;;;;;;;;;;16.40;99.90;;;;;;5115181;28;19908;-73
2023/01/27 12:24:00;;;;;;;;;;;16.50;99.90;;;;;;5115284;28;19912;-70
2023/01/27 12:26:32;;;;;;;;;;;16.40;99.90;;;;;;5115536;28;19916;-75
2023/01/27 12:29:03;;;;;;;;;;;16.30;99.90;;;;;;5115813;28;19908;-74
2023/01/27 12:31:30;;;;;;;;;;;15.90;99.90;;;;;;5096866;28;19955;-75
2023/01/27 12:34:03;;;;;;;;;;;15.70;99.90;;;;;;5115196;28;19961;-75
2023/01/27 12:36:36;;;;;;;;;;;15.50;99.90;;;;;;5115033;28;19908;-75
2023/01/27 12:39:22;;;;;;;;;;;15.40;99.90;;;;;;5097759;28;20317;-74
2023/01/27 12:41:48;;;;;;;;;;;15.00;99.90;;;;;;5088195;28;19919;-75
2023/01/27 12:44:17;;;;;;;;;;;14.90;99.90;;;;;;5090388;28;19908;-75
2023/01/27 12:47:00;;;;;;;;;;;14.70;99.90;;;;;;5114886;28;19908;-74
2023/01/27 12:49:37;;;;;;;;;;;14.80;99.90;;;;;;5096421;28;19953;-73
2023/01/27 12:52:07;;;;;;;;;;;14.90;99.90;;;;;;5114618;28;20483;-73
2023/01/27 12:54:33;;;;;;;;;;;15.00;99.90;;;;;;5096737;28;19922;-73
2023/01/27 12:57:05;;;;;;;;;;;15.00;99.90;;;;;;5098233;28;19908;-73
2023/01/27 12:59:32;;;;;;;;;;;15.00;99.90;;;;;;5091720;28;20364;-74
2023/01/27 13:02:18;;;;;;;;;;;15.00;99.90;;;;;;5093473;28;20364;-72
2023/01/27 13:04:54;;;;;;;;;;;15.00;99.90;;;;;;5094014;28;19920;-76
2023/01/27 13:07:25;;;;;;;;;;;15.00;99.90;;;;;;5094702;28;19931;-73
2023/01/27 13:10:01;;;;;;;;;;;15.00;99.90;;;;;;5094984;28;19908;-74
2023/01/27 13:12:28;;;;;;;;;;;15.10;99.90;;;;;;5094597;28;20001;-74
2023/01/27 13:15:18;;;;;;;;;;;15.30;99.90;;;;;;5086084;28;20355;-73
2023/01/27 13:17:47;;;;;;;;;;;15.40;99.90;;;;;;5104205;28;19907;-73
2023/01/27 13:20:16;;;;;;;;;;;15.50;99.90;;;;;;5114918;28;20370;-74
2023/01/27 13:22:46;;;;;;;;;;;15.60;99.90;;;;;;5095974;28;19912;-71
2023/01/27 13:25:15;;;;;;;;;;;15.70;99.90;;;;;;5114409;28;19923;-75
2023/01/27 13:27:42;;;;;;;;;;;15.60;99.90;;;;;;5114467;28;19912;-71
2023/01/27 13:30:29;;;;;;;;;;;15.70;99.90;;;;;;5115087;28;19958;-74
2023/01/27 13:32:57;;;;;;;;;;;15.30;99.90;;;;;;5114296;28;19998;-74
2023/01/27 13:35:25;;;;;;;;;;;15.30;99.90;;;;;;5114857;28;20273;-75
2023/01/27 13:38:14;;;;;;;;;;;15.20;99.90;;;;;;5114253;28;19915;-75
2023/01/27 13:40:43;;;;;;;;;;;15.00;99.90;;;;;;5103427;28;19908;-74
2023/01/27 13:43:14;;;;;;;;;;;15.10;99.90;;;;;;5114926;28;19908;-74
2023/01/27 13:45:42;;;;;;;;;;;15.10;99.90;;;;;;5114082;28;19915;-74
2023/01/27 13:48:17;;;;;;;;;;;14.90;99.90;;;;;;5113906;28;20398;-74
2023/01/27 13:51:03;;;;;;;;;;;15.20;99.90;;;;;;5114409;28;20339;-72
2023/01/27 13:53:29;;;;;;;;;;;15.50;99.90;;;;;;5113954;28;19912;-74
2023/01/27 13:56:14;;;;;;;;;;;16.00;99.90;;;;;;5113852;28;20359;-74
2023/01/27 13:58:56;;;;;;;;;;;16.00;99.90;;;;;;5113792;28;20022;-72
2023/01/27 14:01:41;;;;;;;;;;;15.50;99.90;;;;;;5095558;28;19912;-74
2023/01/27 14:04:08;;;;;;;;;;;15.50;99.90;;;;;;5113538;28;19919;-68
2023/01/27 14:07:06;;;;;;;;;;;15.50;99.90;;;;;;5095211;28;20129;-74
2023/01/27 14:09:41;;;;;;;;;;;15.80;99.90;;;;;;5031352;28;20313;-75
2023/01/27 14:12:15;;;;;;;;;;;16.50;99.90;;;;;;5031186;28;19916;-75
2023/01/27 14:14:48;;;;;;;;;;;16.80;99.90;;;;;;5014787;28;19952;-76
2023/01/27 14:17:25;;;;;;;;;;;16.80;99.90;;;;;;5031522;28;19909;-74
2023/01/27 14:19:57;;;;;;;;;;;16.10;99.90;;;;;;5031603;28;20393;-75
2023/01/27 14:22:23;;;;;;;;;;;16.10;99.90;;;;;;5032035;28;19916;-75
2023/01/27 14:24:50;;;;;;;;;;;16.10;99.90;;;;;;5031267;28;19929;-74
2023/01/27 14:27:20;;;;;;;;;;;16.40;99.90;;;;;;5032057;28;20000;-73
2023/01/27 14:29:55;;;;;;;;;;;16.10;99.90;;;;;;5031557;28;20013;-74
2023/01/27 14:32:47;;;;;;;;;;;16.00;99.90;;;;;;5031506;28;19910;-74
2023/01/27 14:35:29;;;;;;;;;;;15.80;99.90;;;;;;4972595;28;20004;-74
2023/01/27 14:38:14;;;;;;;;;;;16.00;99.90;;;;;;4956849;28;20001;-72
2023/01/27 14:40:58;;;;;;;;;;;15.80;99.90;;;;;;4972803;28;19910;-75
2023/01/27 14:43:43;;;;;;;;;;;16.10;99.90;;;;;;4972507;28;20078;-75
2023/01/27 14:46:11;;;;;;;;;;;16.00;99.90;;;;;;4988339;28;20098;-74
2023/01/27 14:48:50;;;;;;;;;;;15.90;99.90;;;;;;5011232;28;19975;-75
2023/01/27 14:51:23;;;;;;;;;;;16.00;99.90;;;;;;5011755;28;19913;-74
2023/01/27 14:53:55;;;;;;;;;;;15.90;99.90;;;;;;5011127;28;20021;-74
2023/01/27 14:56:38;;;;;;;;;;;15.80;99.90;;;;;;5011168;28;19949;-75
2023/01/27 14:59:06;;;;;;;;;;;15.40;99.90;;;;;;5014773;28;19910;-72
2023/01/27 15:01:54;;;;;;;;;;;15.20;99.90;;;;;;5014906;28;20432;-72
2023/01/27 15:04:28;;;;;;;;;;;15.00;99.90;;;;;;5014478;28;19948;-74
2023/01/27 15:07:00;;;;;;;;;;;14.80;99.90;;;;;;5014961;28;19924;-71
2023/01/27 15:09:29;;;;;;;;;;;14.50;99.90;;;;;;5014816;28;19917;-73
2023/01/27 15:12:22;;;;;;;;;;;14.10;99.90;;;;;;5042459;28;19909;-68
2023/01/27 15:15:03;;;;;;;;;;;13.70;99.90;;;;;;5091545;28;19951;-73